Time;durP1;ratioP1;P1;durP2;ratioP2;P2;SDS_P1;SDS_P2;PMS_P1;PMS_P2;Temp;Humidity;BMP_temperature;BMP_pressure;BME280_temperature;BME280_humidity;BME280_pressure;Samples;Min_cycle;Max_cycle;Signal;HPM_P1;HPM_P2
2021/08/11 00:00:15;;;;;;;28.00;16.63;;;;;;;14.69;100.00;101387.38;3608211;39;20904;-48
2021/08/11 00:02:44;;;;;;;24.33;14.90;;;;;;;14.66;100.00;101384.66;3584041;39;20503;-52
2021/08/11 00:05:12;;;;;;;26.47;15.97;;;;;;;14.76;100.00;101385.03;3592517;39;20521;-51
2021/08/11 00:07:40;;;;;;;30.07;15.40;;;;;;;14.73;100.00;101383.19;3609543;39;20484;-48
2021/08/11 00:10:09;;;;;;;33.60;15.27;;;;;;;14.69;100.00;101389.97;3595087;39;20470;-48
2021/08/11 00:12:36;;;;;;;27.53;16.40;;;;;;;14.75;100.00;101388.44;3593469;40;20705;-49
2021/08/11 00:15:05;;;;;;;28.13;16.60;;;;;;;14.75;100.00;101378.03;3581063;39;20518;-48
2021/08/11 00:17:33;;;;;;;33.20;18.40;;;;;;;14.68;100.00;101390.78;3592379;39;20560;-50
2021/08/11 00:20:02;;;;;;;29.33;15.73;;;;;;;14.60;100.00;101387.03;3607949;39;20863;-48
2021/08/11 00:22:30;;;;;;;31.93;16.63;;;;;;;14.64;100.00;101388.03;3608513;39;20706;-49
2021/08/11 00:24:58;;;;;;;33.00;18.20;;;;;;;14.68;100.00;101387.31;3607163;39;20827;-47
2021/08/11 00:27:25;;;;;;;26.00;16.40;;;;;;;14.67;100.00;101388.16;3582894;39;20493;-48
2021/08/11 00:29:53;;;;;;;26.63;16.80;;;;;;;14.68;100.00;101390.78;3608928;39;20500;-48
2021/08/11 00:32:20;;;;;;;24.83;15.77;;;;;;;14.64;100.00;101386.34;3610007;39;20500;-48
2021/08/11 00:34:48;;;;;;;39.10;22.50;;;;;;;14.58;100.00;101378.34;3595618;39;20680;-50
2021/08/11 00:37:17;;;;;;;29.63;17.40;;;;;;;14.60;100.00;101384.44;3583699;39;20840;-46
2021/08/11 00:39:45;;;;;;;28.17;17.13;;;;;;;14.59;100.00;101398.25;3610181;39;20558;-48
2021/08/11 00:42:13;;;;;;;34.90;17.57;;;;;;;14.60;100.00;101384.44;3608125;39;20501;-49
2021/08/11 00:44:40;;;;;;;34.70;17.20;;;;;;;14.55;100.00;101386.91;3591359;39;20811;-48
2021/08/11 00:47:08;;;;;;;30.07;15.57;;;;;;;14.55;100.00;101391.19;3597435;39;20500;-50
2021/08/11 00:49:36;;;;;;;25.90;15.67;;;;;;;14.45;100.00;101396.06;3600544;39;20832;-47
2021/08/11 00:52:06;;;;;;;25.60;15.17;;;;;;;14.41;100.00;101391.59;3610639;39;20581;-50
2021/08/11 00:54:35;;;;;;;35.37;17.30;;;;;;;14.46;100.00;101396.94;3592232;39;22297;-51
2021/08/11 00:57:04;;;;;;;32.67;16.47;;;;;;;14.54;100.00;101392.03;3610723;39;20564;-49
2021/08/11 00:59:34;;;;;;;29.27;18.70;;;;;;;14.49;100.00;101390.97;3597591;39;20481;-50
2021/08/11 01:02:02;;;;;;;27.30;17.30;;;;;;;14.51;100.00;101389.34;3589628;39;20800;-48
2021/08/11 01:04:30;;;;;;;29.70;17.50;;;;;;;14.40;100.00;101392.41;3600421;39;20489;-50
2021/08/11 01:07:00;;;;;;;26.27;16.60;;;;;;;14.49;100.00;101401.34;3610298;39;20513;-47
2021/08/11 01:09:29;;;;;;;30.30;16.13;;;;;;;14.41;100.00;101399.38;3610602;39;20673;-50
2021/08/11 01:11:58;;;;;;;31.63;17.43;;;;;;;14.45;100.00;101393.47;3610822;39;20742;-49
2021/08/11 01:14:44;;;;;;;31.10;18.40;;;;;;;14.36;100.00;101385.34;3609184;39;20472;-51
2021/08/11 01:17:12;;;;;;;31.77;19.10;;;;;;;14.32;100.00;101399.06;3607555;39;20584;-49
2021/08/11 01:19:40;;;;;;;33.67;16.57;;;;;;;14.26;100.00;101393.63;3607174;39;20544;-47
2021/08/11 01:22:11;;;;;;;31.00;17.10;;;;;;;14.33;100.00;101395.63;3610639;39;20511;-46
2021/08/11 01:24:43;;;;;;;42.37;26.07;;;;;;;14.28;100.00;101386.78;3608822;39;20901;-47
2021/08/11 01:27:35;;;;;;;34.33;18.23;;;;;;;14.36;100.00;101392.25;3610624;39;20673;-46
2021/08/11 01:30:09;;;;;;;30.77;18.53;;;;;;;14.42;100.00;101382.97;3608917;39;20472;-47
2021/08/11 01:32:53;;;;;;;36.83;19.87;;;;;;;14.31;100.00;101377.38;3610255;39;20519;-45
2021/08/11 01:35:26;;;;;;;30.13;16.40;;;;;;;14.34;100.00;101371.44;3585295;39;20517;-46
2021/08/11 01:37:55;;;;;;;32.10;18.07;;;;;;;14.34;100.00;101374.03;3583804;39;20502;-50
2021/08/11 01:40:26;;;;;;;30.10;17.77;;;;;;;14.32;100.00;101373.09;3583088;39;20501;-47
2021/08/11 01:42:55;;;;;;;28.63;18.00;;;;;;;14.35;100.00;101377.50;3583516;39;20518;-49
2021/08/11 01:45:27;;;;;;;30.93;17.73;;;;;;;14.37;100.00;101381.94;3591603;39;20808;-48
2021/08/11 01:47:58;;;;;;;33.70;20.23;;;;;;;14.32;100.00;101383.47;3583415;39;20521;-47
2021/08/11 01:50:29;;;;;;;34.53;19.13;;;;;;;14.21;100.00;101389.97;3608897;39;20546;-49
2021/08/11 01:52:57;;;;;;;33.10;17.83;;;;;;;14.13;100.00;101393.19;3610712;39;20531;-50
2021/08/11 01:55:25;;;;;;;43.43;17.83;;;;;;;14.11;100.00;101394.81;3589671;39;20471;-50
2021/08/11 01:57:53;;;;;;;29.97;17.20;;;;;;;14.14;100.00;101407.91;3606579;39;20500;-50
2021/08/11 02:00:24;;;;;;;29.87;17.60;;;;;;;14.13;100.00;101406.16;3609370;39;20477;-48
2021/08/11 02:02:53;;;;;;;33.37;18.13;;;;;;;14.01;100.00;101409.16;3610329;39;20822;-46
2021/08/11 02:05:24;;;;;;;27.43;16.50;;;;;;;14.00;100.00;101419.50;3583047;39;20519;-46
2021/08/11 02:07:53;;;;;;;31.30;18.80;;;;;;;14.01;100.00;101410.88;3583670;39;20503;-47
2021/08/11 02:10:22;;;;;;;36.23;18.10;;;;;;;14.00;100.00;101411.72;3611166;39;20769;-50
2021/08/11 02:12:49;;;;;;;29.00;18.20;;;;;;;14.04;100.00;101408.38;3583737;39;20499;-47
2021/08/11 02:15:17;;;;;;;34.20;19.53;;;;;;;14.09;100.00;101412.03;3611636;39;20507;-49
2021/08/11 02:17:45;;;;;;;33.77;18.60;;;;;;;14.12;100.00;101401.81;3611884;39;20502;-47
2021/08/11 02:20:14;;;;;;;40.67;19.07;;;;;;;14.01;100.00;101408.28;3611651;39;20498;-48
2021/08/11 02:22:42;;;;;;;39.00;19.43;;;;;;;14.12;100.00;101407.00;3611981;39;20508;-48
2021/08/11 02:25:13;;;;;;;30.07;18.47;;;;;;;14.14;100.00;101401.84;3595227;39;20507;-47
2021/08/11 02:27:48;;;;;;;38.20;20.80;;;;;;;14.08;100.00;101394.72;3611454;39;20501;-50
2021/08/11 02:30:17;;;;;;;38.10;19.07;;;;;;;14.04;100.00;101403.19;3593942;39;20498;-47
2021/08/11 02:32:49;;;;;;;39.03;20.80;;;;;;;14.07;100.00;101400.72;3611339;39;20506;-49
2021/08/11 02:35:21;;;;;;;34.73;20.60;;;;;;;14.12;100.00;101401.81;3611695;39;20776;-47
2021/08/11 02:37:53;;;;;;;38.93;19.00;;;;;;;14.09;100.00;101400.81;3611714;39;20534;-47
2021/08/11 02:40:30;;;;;;;29.00;18.33;;;;;;;14.07;100.00;101405.03;3584764;39;20525;-49
2021/08/11 02:43:01;;;;;;;37.47;18.40;;;;;;;14.00;100.00;101411.72;3601616;39;20500;-48
2021/08/11 02:45:31;;;;;;;33.07;18.57;;;;;;;13.93;100.00;101405.38;3610427;39;20736;-47
2021/08/11 02:47:59;;;;;;;33.17;19.50;;;;;;;14.02;100.00;101408.34;3611806;39;20613;-48
2021/08/11 02:50:27;;;;;;;40.63;19.93;;;;;;;13.91;100.00;101412.25;3569548;40;20487;-46
2021/08/11 02:52:55;;;;;;;42.40;20.00;;;;;;;13.96;100.00;101415.00;3554700;40;20518;-46
2021/08/11 02:55:24;;;;;;;38.33;20.40;;;;;;;14.09;100.00;101418.97;3577355;40;20470;-48
2021/08/11 02:57:52;;;;;;;32.50;19.57;;;;;;;14.11;100.00;101415.56;3562979;40;20550;-47
2021/08/11 03:00:20;;;;;;;37.40;20.43;;;;;;;14.02;100.00;101415.22;3572151;40;20479;-48
2021/08/11 03:02:48;;;;;;;35.50;20.17;;;;;;;13.86;100.00;101411.16;3571401;40;20502;-46
2021/08/11 03:05:17;;;;;;;35.90;20.10;;;;;;;13.82;100.00;101415.34;3577951;40;20703;-48
2021/08/11 03:07:45;;;;;;;37.80;20.67;;;;;;;13.94;100.00;101412.34;3562224;40;20501;-48
2021/08/11 03:10:12;;;;;;;32.63;19.20;;;;;;;13.93;100.00;101412.31;3577952;40;20522;-49
2021/08/11 03:12:44;;;;;;;41.87;22.90;;;;;;;13.84;100.00;101426.66;3570454;40;20566;-47
2021/08/11 03:15:12;;;;;;;38.43;21.97;;;;;;;14.01;100.00;101416.06;3554205;40;20519;-47
2021/08/11 03:17:39;;;;;;;37.23;20.70;;;;;;;13.98;100.00;101415.94;3579261;40;20521;-47
2021/08/11 03:20:09;;;;;;;35.57;20.17;;;;;;;13.89;100.00;101417.34;3559200;40;20499;-46
2021/08/11 03:22:36;;;;;;;31.70;18.50;;;;;;;13.90;100.00;101419.13;3575664;39;20857;-47
2021/08/11 03:25:05;;;;;;;33.50;20.20;;;;;;;13.85;100.00;101420.66;3597595;39;20529;-49
2021/08/11 03:27:32;;;;;;;38.70;21.30;;;;;;;13.86;100.00;101419.84;3606058;39;20510;-46
2021/08/11 03:30:01;;;;;;;36.30;19.40;;;;;;;13.80;100.00;101422.22;3599470;39;20530;-48
2021/08/11 03:32:29;;;;;;;34.93;20.60;;;;;;;13.76;100.00;101420.31;3588931;40;20548;-48
2021/08/11 03:34:57;;;;;;;40.20;21.10;;;;;;;13.75;100.00;101418.53;3563540;40;20469;-45
2021/08/11 03:37:24;;;;;;;40.43;21.93;;;;;;;13.62;100.00;101415.47;3570680;40;20571;-50
2021/08/11 03:39:55;;;;;;;43.50;21.60;;;;;;;13.65;100.00;101419.88;3578610;40;20481;-47
2021/08/11 03:42:22;;;;;;;42.83;22.20;;;;;;;13.73;100.00;101422.75;3599543;40;20530;-47
2021/08/11 03:44:53;;;;;;;39.00;21.30;;;;;;;13.80;100.00;101418.72;3573035;40;20506;-47
2021/08/11 03:47:22;;;;;;;39.10;22.00;;;;;;;13.77;100.00;101424.66;3590973;40;20649;-45
2021/08/11 03:49:50;;;;;;;43.27;23.27;;;;;;;13.74;100.00;101422.84;3561671;40;20481;-46
2021/08/11 03:52:18;;;;;;;43.67;23.17;;;;;;;13.80;100.00;101424.78;3579129;40;20500;-46
2021/08/11 03:54:46;;;;;;;38.77;21.43;;;;;;;13.82;100.00;101432.63;3553596;40;20501;-48
2021/08/11 03:57:13;;;;;;;40.40;21.87;;;;;;;13.71;100.00;101424.41;3569615;40;20522;-50
2021/08/11 03:59:41;;;;;;;46.63;22.53;;;;;;;13.70;100.00;101430.44;3568744;40;20491;-48
2021/08/11 04:02:08;;;;;;;54.10;23.50;;;;;;;13.77;100.00;101430.75;3584523;39;20517;-47
2021/08/11 04:04:39;;;;;;;51.17;24.60;;;;;;;13.84;100.00;101429.25;3592550;39;20511;-49
2021/08/11 04:07:07;;;;;;;44.97;25.53;;;;;;;13.82;100.00;101433.50;3583898;39;20807;-48
2021/08/11 04:09:35;;;;;;;51.30;24.20;;;;;;;13.88;100.00;101428.56;3608112;39;20851;-51
2021/08/11 04:12:02;;;;;;;46.90;23.90;;;;;;;13.85;100.00;101432.75;3610985;39;20502;-46
2021/08/11 04:14:30;;;;;;;50.73;23.93;;;;;;;13.84;100.00;101425.81;3592172;39;20525;-46
2021/08/11 04:16:58;;;;;;;42.13;23.13;;;;;;;13.97;100.00;101435.81;3611306;39;20630;-50
2021/08/11 04:19:25;;;;;;;50.60;24.70;;;;;;;13.82;100.00;101428.31;3574802;40;20527;-47
2021/08/11 04:21:54;;;;;;;48.07;23.83;;;;;;;13.77;100.00;101429.84;3603032;39;20503;-48
2021/08/11 04:24:22;;;;;;;49.60;23.63;;;;;;;13.75;100.00;101428.91;3609675;39;20491;-45
2021/08/11 04:26:49;;;;;;;52.47;26.60;;;;;;;13.76;100.00;101425.50;3584114;39;20504;-46
2021/08/11 04:29:17;;;;;;;53.37;27.63;;;;;;;13.77;100.00;101435.03;3607466;39;25542;-49
2021/08/11 04:31:44;;;;;;;48.57;24.67;;;;;;;13.80;100.00;101431.69;3583681;39;20551;-46
2021/08/11 04:34:12;;;;;;;48.00;23.60;;;;;;;13.80;100.00;101432.56;3610746;39;20498;-47
2021/08/11 04:36:40;;;;;;;49.27;23.00;;;;;;;13.87;100.00;101433.69;3609192;39;20461;-45
2021/08/11 04:39:09;;;;;;;46.53;24.43;;;;;;;13.91;100.00;101433.84;3583916;39;20498;-49
2021/08/11 04:41:36;;;;;;;47.97;25.07;;;;;;;14.02;100.00;101436.00;3584001;39;20499;-48
2021/08/11 04:44:06;;;;;;;45.23;24.50;;;;;;;14.01;100.00;101434.22;3610282;39;20494;-48
2021/08/11 04:46:34;;;;;;;46.70;23.83;;;;;;;14.06;100.00;101429.22;3605258;39;20517;-49
2021/08/11 04:49:02;;;;;;;43.37;22.77;;;;;;;14.07;100.00;101431.88;3583468;39;20514;-45
2021/08/11 04:51:29;;;;;;;46.10;24.50;;;;;;;14.11;100.00;101436.31;3592508;39;20491;-46
2021/08/11 04:53:57;;;;;;;49.97;24.40;;;;;;;14.06;100.00;101437.00;3598655;39;20515;-47
2021/08/11 04:56:26;;;;;;;50.97;23.70;;;;;;;14.03;100.00;101440.34;3592140;39;20530;-47
2021/08/11 04:58:54;;;;;;;40.57;23.47;;;;;;;14.16;100.00;101440.00;3583977;39;20523;-48
2021/08/11 05:01:21;;;;;;;53.73;21.70;;;;;;;14.20;100.00;101434.94;3610272;39;20496;-47
2021/08/11 05:03:50;;;;;;;43.87;23.43;;;;;;;14.11;100.00;101435.47;3611031;39;20495;-47
2021/08/11 05:06:18;;;;;;;47.27;23.97;;;;;;;14.17;100.00;101441.75;3608491;39;20466;-48
2021/08/11 05:08:46;;;;;;;46.30;23.80;;;;;;;14.26;100.00;101445.53;3610236;39;20503;-48
2021/08/11 05:11:13;;;;;;;50.27;24.13;;;;;;;14.27;100.00;101447.31;3609351;39;20507;-49
2021/08/11 05:13:42;;;;;;;60.67;27.70;;;;;;;14.30;100.00;101447.41;3583304;39;20747;-47
2021/08/11 05:16:10;;;;;;;57.63;24.53;;;;;;;14.33;100.00;101452.72;3584688;40;20477;-48
2021/08/11 05:18:38;;;;;;;41.70;22.53;;;;;;;14.34;100.00;101448.41;3597405;39;20508;-47
2021/08/11 05:21:05;;;;;;;44.37;23.40;;;;;;;14.24;100.00;101450.66;3596831;39;20530;-46
2021/08/11 05:23:33;;;;;;;52.67;24.63;;;;;;;14.29;100.00;101456.91;3573490;40;20524;-47
2021/08/11 05:26:01;;;;;;;40.47;20.70;;;;;;;14.25;100.00;101465.41;3574751;40;20524;-47
2021/08/11 05:28:28;;;;;;;43.87;23.20;;;;;;;14.45;100.00;101462.66;3598426;40;20496;-46
2021/08/11 05:30:57;;;;;;;49.27;24.63;;;;;;;14.47;100.00;101465.34;3592010;40;20834;-48
2021/08/11 05:33:25;;;;;;;57.90;24.37;;;;;;;14.52;100.00;101469.00;3598522;40;20563;-47
2021/08/11 05:35:52;;;;;;;45.50;23.07;;;;;;;14.58;100.00;101471.81;3596265;39;20492;-49
2021/08/11 05:38:20;;;;;;;45.07;24.23;;;;;;;14.72;100.00;101467.13;3589908;40;20564;-47
2021/08/11 05:40:48;;;;;;;55.03;24.27;;;;;;;14.68;100.00;101466.09;3602661;39;20504;-46
2021/08/11 05:43:15;;;;;;;41.30;23.13;;;;;;;14.57;100.00;101467.44;3610405;39;20515;-48
2021/08/11 05:45:43;;;;;;;46.27;23.70;;;;;;;14.74;100.00;101474.94;3608640;39;20481;-50
2021/08/11 05:48:12;;;;;;;42.17;23.40;;;;;;;14.78;100.00;101480.38;3611458;39;20521;-45
2021/08/11 05:50:40;;;;;;;48.30;23.30;;;;;;;15.01;100.00;101479.41;3602873;39;20491;-49
2021/08/11 05:53:07;;;;;;;48.93;23.47;;;;;;;15.08;100.00;101479.66;3601673;39;20555;-46
2021/08/11 05:55:35;;;;;;;40.40;23.10;;;;;;;15.21;100.00;101491.38;3584878;40;20828;-49
2021/08/11 05:58:03;;;;;;;57.43;27.07;;;;;;;15.37;100.00;101481.47;3601519;39;20509;-45
2021/08/11 06:00:30;;;;;;;50.13;24.17;;;;;;;15.33;100.00;101482.22;3586859;39;20497;-46
2021/08/11 06:02:58;;;;;;;46.70;22.40;;;;;;;15.19;100.00;101473.94;3601847;39;20541;-48
2021/08/11 06:05:28;;;;;;;39.40;21.13;;;;;;;15.09;100.00;101485.75;3599391;39;20458;-51
2021/08/11 06:07:56;;;;;;;49.87;23.13;;;;;;;15.20;100.00;101489.59;3601478;39;20493;-48
2021/08/11 06:10:23;;;;;;;62.53;28.10;;;;;;;15.45;100.00;101482.66;3599890;39;20478;-47
2021/08/11 06:12:53;;;;;;;40.97;24.03;;;;;;;15.49;100.00;101483.63;3575104;39;20500;-47
2021/08/11 06:15:21;;;;;;;45.73;22.50;;;;;;;15.36;100.00;101482.31;3602065;39;20493;-47
2021/08/11 06:17:50;;;;;;;39.90;23.50;;;;;;;15.62;100.00;101488.38;3604415;39;20516;-47
2021/08/11 06:20:19;;;;;;;49.83;23.40;;;;;;;15.61;100.00;101483.13;3593310;39;20518;-46
2021/08/11 06:22:49;;;;;;;41.00;22.97;;;;;;;15.70;100.00;101488.66;3611500;39;20498;-47
2021/08/11 06:25:17;;;;;;;35.53;21.40;;;;;;;15.68;100.00;101492.91;3593005;39;20552;-46
2021/08/11 06:27:45;;;;;;;39.53;22.47;;;;;;;15.78;100.00;101494.97;3611774;39;20518;-46
2021/08/11 06:30:13;;;;;;;33.33;20.57;;;;;;;15.75;100.00;101491.38;3611172;39;20469;-50
2021/08/11 06:32:42;;;;;;;32.53;20.57;;;;;;;15.71;100.00;101487.81;3585083;39;20498;-51
2021/08/11 06:35:11;;;;;;;36.50;21.40;;;;;;;15.78;100.00;101489.75;3603371;39;20547;-46
2021/08/11 06:37:46;;;;;;;43.13;20.00;;;;;;;15.88;100.00;101493.53;3611241;39;20509;-47
2021/08/11 06:40:16;;;;;;;38.03;21.00;;;;;;;15.98;100.00;101489.53;3593464;39;20821;-48
2021/08/11 06:42:44;;;;;;;32.60;19.13;;;;;;;16.25;100.00;101492.94;3611339;39;20508;-49
2021/08/11 06:45:12;;;;;;;36.00;19.60;;;;;;;16.11;100.00;101490.81;3609233;39;20708;-45
2021/08/11 06:47:40;;;;;;;27.33;17.00;;;;;;;16.08;100.00;101495.91;3598598;39;20500;-48
2021/08/11 06:50:09;;;;;;;31.13;16.97;;;;;;;16.25;100.00;101498.16;3613038;39;20555;-47
2021/08/11 06:52:36;;;;;;;34.03;16.30;;;;;;;16.15;100.00;101500.47;3611488;39;20531;-46
2021/08/11 06:55:06;;;;;;;24.73;14.90;;;;;;;16.23;100.00;101490.28;3584141;39;20510;-46
2021/08/11 06:57:35;;;;;;;25.63;14.97;;;;;;;16.31;100.00;101495.75;3610718;39;20507;-47
2021/08/11 07:00:04;;;;;;;22.13;14.00;;;;;;;16.32;100.00;101489.69;3584254;39;20536;-47
2021/08/11 07:02:32;;;;;;;77.87;25.43;;;;;;;16.28;100.00;101474.81;3611232;39;20523;-46
2021/08/11 07:05:00;;;;;;;32.50;13.30;;;;;;;16.26;100.00;101474.75;3608575;39;20498;-47
2021/08/11 07:07:27;;;;;;;21.70;12.37;;;;;;;16.31;100.00;101482.72;3611246;39;20500;-48
2021/08/11 07:09:55;;;;;;;45.73;17.03;;;;;;;16.35;100.00;101478.47;3609657;39;20485;-47
2021/08/11 07:12:23;;;;;;;23.97;12.30;;;;;;;16.53;100.00;101489.44;3584665;39;20696;-45
2021/08/11 07:14:52;;;;;;;20.10;13.70;;;;;;;16.63;100.00;101490.59;3584413;39;20526;-47
2021/08/11 07:17:21;;;;;;;76.17;22.50;;;;;;;16.59;100.00;101494.81;3607616;39;20501;-50
2021/08/11 07:19:48;;;;;;;26.97;12.37;;;;;;;16.68;100.00;101488.09;3611038;39;20520;-46
2021/08/11 07:22:16;;;;;;;60.47;21.43;;;;;;;16.93;100.00;101487.06;3584051;39;20708;-45
2021/08/11 07:24:44;;;;;;;22.47;14.93;;;;;;;17.27;100.00;101489.69;3583845;39;20548;-47
2021/08/11 07:27:12;;;;;;;36.57;22.70;;;;;;;17.50;100.00;101484.19;3610270;39;20808;-47
2021/08/11 07:29:40;;;;;;;67.63;42.10;;;;;;;17.57;100.00;101487.84;3605968;39;20512;-46
2021/08/11 07:32:09;;;;;;;40.80;25.70;;;;;;;17.73;100.00;101481.25;3609503;39;20508;-48
2021/08/11 07:34:36;;;;;;;21.10;13.90;;;;;;;17.74;100.00;101481.28;3604209;39;20472;-48
2021/08/11 07:37:04;;;;;;;38.93;23.80;;;;;;;17.61;100.00;101482.72;3610624;39;20496;-46
2021/08/11 07:39:32;;;;;;;22.87;11.90;;;;;;;17.39;100.00;101492.59;3609581;39;20538;-46
2021/08/11 07:42:00;;;;;;;15.47;9.33;;;;;;;17.33;100.00;101491.59;3610890;39;20519;-48
2021/08/11 07:44:28;;;;;;;35.67;14.60;;;;;;;17.43;100.00;101497.91;3609603;39;20508;-47
2021/08/11 07:46:55;;;;;;;20.97;10.90;;;;;;;17.15;100.00;101495.47;3610858;39;20726;-48
2021/08/11 07:49:24;;;;;;;24.92;11.88;;;;;;;17.00;100.00;101499.41;3610023;39;20466;-46
2021/08/11 07:51:52;;;;;;;21.50;11.67;;;;;;;17.05;100.00;101494.34;3610892;39;20247;-49
2021/08/11 07:54:20;;;;;;;14.13;7.70;;;;;;;17.09;100.00;101493.59;3610421;39;20538;-46
2021/08/11 07:56:47;;;;;;;14.07;9.50;;;;;;;17.22;100.00;101501.75;3611272;39;20520;-50
2021/08/11 07:59:15;;;;;;;16.00;10.40;;;;;;;17.19;100.00;101501.66;3609069;39;20506;-50
2021/08/11 08:01:42;;;;;;;17.00;8.33;;;;;;;17.20;100.00;101501.69;3601141;39;20535;-48
2021/08/11 08:04:10;;;;;;;12.77;6.33;;;;;;;17.17;100.00;101496.38;3610392;39;20554;-47
2021/08/11 08:06:39;;;;;;;17.27;7.23;;;;;;;17.28;100.00;101486.25;3610221;39;20470;-45
2021/08/11 08:09:07;;;;;;;16.70;7.43;;;;;;;17.53;100.00;101485.13;3592748;39;20717;-47
2021/08/11 08:11:34;;;;;;;16.10;7.33;;;;;;;17.59;100.00;101476.56;3605052;39;20508;-45
2021/08/11 08:14:02;;;;;;;16.17;6.93;;;;;;;17.39;100.00;101479.56;3606120;39;20527;-48
2021/08/11 08:16:30;;;;;;;22.37;10.67;;;;;;;17.36;100.00;101476.00;3611002;39;20529;-48
2021/08/11 08:18:57;;;;;;;14.90;8.10;;;;;;;17.27;100.00;101479.25;3610901;39;20512;-47
2021/08/11 08:21:25;;;;;;;25.70;11.70;;;;;;;17.25;100.00;101480.94;3610399;39;20815;-49
2021/08/11 08:23:54;;;;;;;34.43;17.60;;;;;;;17.26;100.00;101480.09;3610793;39;20517;-46
2021/08/11 08:26:21;;;;;;;15.43;7.77;;;;;;;17.51;100.00;101488.56;3588921;40;20477;-49
2021/08/11 08:28:50;;;;;;;12.40;7.60;;;;;;;17.72;100.00;101482.97;3598956;39;20495;-48
2021/08/11 08:31:18;;;;;;;121.53;35.70;;;;;;;17.82;100.00;101484.06;3599645;39;20824;-45
2021/08/11 08:33:45;;;;;;;18.60;9.00;;;;;;;17.89;100.00;101480.75;3609625;39;20570;-45
2021/08/11 08:36:13;;;;;;;30.83;11.33;;;;;;;17.88;100.00;101483.31;3599197;39;20774;-48
2021/08/11 08:38:41;;;;;;;23.00;9.93;;;;;;;17.88;100.00;101485.94;3609968;39;20500;-47
2021/08/11 08:41:11;;;;;;;19.47;9.17;;;;;;;18.17;100.00;101486.63;3587905;40;20498;-45
2021/08/11 08:43:39;;;;;;;65.00;22.23;;;;;;;18.55;100.00;101482.19;3581642;40;20511;-47
2021/08/11 08:46:07;;;;;;;13.50;8.07;;;;;;;18.53;100.00;101491.72;3581009;40;20561;-48
2021/08/11 08:48:38;;;;;;;18.83;10.13;;;;;;;18.68;100.00;101489.41;3581180;40;20501;-51
2021/08/11 08:51:07;;;;;;;12.73;8.33;;;;;;;18.93;100.00;101484.66;3599271;39;20799;-49
2021/08/11 08:53:35;;;;;;;12.17;7.23;;;;;;;19.09;100.00;101490.19;3599511;39;20499;-46
2021/08/11 08:56:03;;;;;;;10.03;6.73;;;;;;;18.93;100.00;101484.66;3598723;39;20677;-48
2021/08/11 08:58:32;;;;;;;13.53;6.10;;;;;;;18.58;100.00;101471.78;3600115;39;20527;-45
2021/08/11 09:00:59;;;;;;;11.80;5.80;;;;;;;18.67;100.00;101463.25;3600717;39;20511;-45
2021/08/11 09:03:27;;;;;;;10.63;6.50;;;;;;;19.08;100.00;101457.91;3581486;40;20933;-48
2021/08/11 09:05:55;;;;;;;11.73;5.47;;;;;;;19.10;100.00;101457.97;3598852;39;20511;-47
2021/08/11 09:08:23;;;;;;;8.70;5.80;;;;;;;18.98;100.00;101449.00;3598910;39;20508;-50
2021/08/11 09:10:51;;;;;;;9.60;6.10;;;;;;;19.16;100.00;101458.97;3598544;39;20478;-49
2021/08/11 09:13:20;;;;;;;13.00;6.77;;;;;;;19.38;100.00;101459.31;3599641;39;20505;-45
2021/08/11 09:15:50;;;;;;;10.83;5.27;;;;;;;19.16;100.00;101456.34;3599210;39;21064;-46
2021/08/11 09:18:19;;;;;;;19.83;12.80;;;;;;;19.42;100.00;101458.50;3573432;40;20503;-45
2021/08/11 09:20:48;;;;;;;14.73;6.80;;;;;;;19.72;100.00;101453.72;3603061;39;20474;-48
2021/08/11 09:23:16;;;;;;;13.90;6.00;;;;;;;19.67;100.00;101452.78;3611632;39;20503;-45
2021/08/11 09:25:58;;;;;;;39.57;13.50;;;;;;;19.69;100.00;101456.31;3609101;39;20480;-46
2021/08/11 09:28:27;;;;;;;7.57;5.40;;;;;;;19.83;100.00;101454.75;3605123;39;20501;-49
2021/08/11 09:31:01;;;;;;;22.73;8.13;;;;;;;19.92;100.00;101460.97;3584628;39;20503;-49
2021/08/11 09:33:29;;;;;;;17.20;7.27;;;;;;;19.62;100.00;101470.13;3611626;39;20509;-49
2021/08/11 09:36:10;;;;;;;14.90;7.10;;;;;;;19.50;100.00;101469.09;3610802;39;20499;-49
2021/08/11 09:38:53;;;;;;;13.40;7.30;;;;;;;19.80;100.00;101459.94;3592860;39;20504;-48
2021/08/11 09:41:21;;;;;;;11.73;5.23;;;;;;;19.49;100.00;101464.69;3581935;39;20516;-46
2021/08/11 09:43:49;;;;;;;9.70;6.07;;;;;;;19.55;100.00;101470.03;3611135;39;20497;-46
2021/08/11 09:46:29;;;;;;;9.63;5.27;;;;;;;19.54;100.00;101470.91;3608727;39;20487;-48
2021/08/11 09:48:57;;;;;;;12.10;7.10;;;;;;;19.42;100.00;101476.81;3611772;39;20769;-49
2021/08/11 09:51:24;;;;;;;15.50;7.00;;;;;;;19.61;100.00;101476.22;3610750;39;20470;-49
2021/08/11 09:53:52;;;;;;;9.20;6.10;;;;;;;19.96;100.00;101473.31;3611525;39;20504;-46
2021/08/11 09:56:19;;;;;;;10.67;6.23;;;;;;;19.82;100.00;101471.34;3610931;39;20472;-48
2021/08/11 09:59:01;;;;;;;10.17;5.93;;;;;;;19.60;100.00;101466.63;3611148;39;20858;-48
2021/08/11 10:01:30;;;;;;;14.37;6.27;;;;;;;19.64;100.00;101471.91;3611007;39;20473;-46
2021/08/11 10:04:00;;;;;;;12.27;6.10;;;;;;;19.87;100.00;101466.16;3610764;39;20492;-47
2021/08/11 10:06:28;;;;;;;9.67;5.80;;;;;;;20.13;100.00;101467.41;3610980;39;20569;-46
2021/08/11 10:08:56;;;;;;;11.07;5.13;;;;;;;20.26;100.00;101464.09;3611321;39;20505;-48
2021/08/11 10:11:36;;;;;;;12.57;7.00;;;;;;;20.64;100.00;101461.06;3610787;39;20483;-49
2021/08/11 10:14:06;;;;;;;9.47;4.63;;;;;;;20.47;100.00;101463.47;3592450;39;20484;-48
2021/08/11 10:16:35;;;;;;;7.63;4.50;;;;;;;20.39;100.00;101464.25;3610917;39;20513;-48
2021/08/11 10:19:04;;;;;;;8.27;4.80;;;;;;;20.53;100.00;101460.06;3610216;39;20702;-46
2021/08/11 10:21:33;;;;;;;8.47;5.10;;;;;;;20.59;100.00;101461.84;3608946;39;20722;-47
2021/08/11 10:24:02;;;;;;;13.17;7.10;;;;;;;20.30;100.00;101463.25;3593367;39;20501;-48
2021/08/11 10:26:30;;;;;;;6.37;3.77;;;;;;;20.19;100.00;101462.25;3610780;39;20433;-47
2021/08/11 10:28:58;;;;;;;6.00;3.87;;;;;;;20.55;100.00;101455.69;3610960;39;20502;-46
2021/08/11 10:31:26;;;;;;;12.30;4.00;;;;;;;20.67;100.00;101461.94;3609344;39;20474;-48
2021/08/11 10:33:55;;;;;;;6.90;3.67;;;;;;;20.95;100.00;101451.75;3592576;39;20814;-48
2021/08/11 10:36:23;;;;;;;9.30;4.50;;;;;;;20.75;100.00;101455.03;3609816;39;21114;-48
2021/08/11 10:38:51;;;;;;;13.20;4.90;;;;;;;21.03;100.00;101455.34;3584294;39;20496;-48
2021/08/11 10:41:18;;;;;;;9.00;4.20;;;;;;;20.60;100.00;101451.38;3610638;39;20472;-48
2021/08/11 10:43:46;;;;;;;10.00;4.50;;;;;;;20.59;100.00;101451.38;3610483;39;20499;-46
2021/08/11 10:46:15;;;;;;;7.40;4.60;;;;;;;21.23;100.00;101452.03;3609727;39;20487;-47
2021/08/11 10:48:43;;;;;;;7.07;3.93;;;;;;;21.06;100.00;101447.50;3611805;39;20755;-46
2021/08/11 10:51:13;;;;;;;8.60;3.60;;;;;;;21.04;100.00;101441.38;3610333;39;20476;-46
2021/08/11 10:54:02;;;;;;;8.13;3.63;;;;;;;21.14;100.00;101445.84;3611751;39;20696;-47
2021/08/11 10:56:42;;;;;;;6.27;3.57;;;;;;;21.37;100.00;101446.91;3611404;39;20472;-45
2021/08/11 10:59:43;;;;;;;7.30;3.77;;;;;;;21.07;100.00;101453.63;3600808;39;20507;-45
2021/08/11 11:02:40;;;;;;;11.07;5.10;;;;;;;21.53;100.00;101458.38;3610979;39;20504;-49
2021/08/11 11:05:09;;;;;;;7.93;4.00;;;;;;;21.79;100.00;101462.97;3597101;39;20480;-50
2021/08/11 11:07:38;;;;;;;9.17;3.53;;;;;;;21.67;100.00;101456.72;3611499;39;20512;-46
2021/08/11 11:10:26;;;;;;;7.43;3.13;;;;;;;21.41;100.00;101452.16;3589983;39;20479;-47
2021/08/11 11:12:54;;;;;;;6.87;3.60;;;;;;;21.60;100.00;101462.81;3611224;39;20489;-50